Forside
METAR-TAF:

METAR-TAF

Lufthavne :

Princess Juliana International Airport

Sint Maarten, Nederlandske Antiller

Breddekreds: 18-03N, længdekreds: 063-07W, højde: 4 m

Aktuelle vejr

Denne rapport blev lavet for 41 minutter siden, kl. 06:00 UTC
Vind 5 kt fra øst, varierende mellem nordnordøst og østsydøst
Temperatur 28°C
Fugtighed 74%
Tryk 1015 hPa
Sigt: 5000 m
Nogle få skyer i en højde af 2000 ft
tåge/dis

METAR: TNCM 210600Z 08005KT 030V120 5000 HZ FEW020 28/23 Q1015 A2997 RMK HZ ALQDS

Tid: 02:41 (06:41 UTC)

Vejrudsigter

Denne rapport blev lavet for 1 time og 21 minutter siden, kl. 05:20 UTC
Foreløbig gælder fra 21 på 06 UTC til 22 på 06 UTC
Vind 8 kt fra østnordøst
Sigt: 9.7 km
Nogle få skyer i en højde af 1800 ft
tåge/dis
Fra 21 på 1300 UTC
Vind 14 kt fra øst
Sigt: 10 km
Spredte skyer i en højde af 2000 ft
Fra 21 på 2300 UTC
Vind 9 kt fra østnordøst
Sigt: 10 km
Nogle få skyer i en højde af 2200 ft

TAF: TNCM 210520Z 2106/2206 07008KT 6SM HZ FEW018 FM211300 08014KT P6SM SCT020 FM212300 07009KT P6SM FEW022

Vejrobservationer og prognoser fra mere end 4000 lufthavne (METAR og TAF).

De gule og røde prikker repræsenterer de meteorologiske stationer.

Flyt musen over at se navnet på stationen.

Så klik over at se vejr observationer og prognoser.

At skifte det kort: Klik på de grønne knapper med et sort kors for at zoome ind; på den grønne knap med en bindestreg for at zoome ud; eller på de grønne pile for tilstødende kort.


METAR-TAF: